Main page
METAR-TAF:

METAR-TAF

Airports :

Ørsta–Volda Airport. Hovden

Ørsta-Volda, Norway

latitude: 62-11N, longitude: 006-04E, elevation: 7 m

Current weather observation

The report was made 31 minutes ago, at 12:50 UTC
Wind 12 kt from the West/Southwest with gusts up to 29 kt, varying between Southwest and West/Northwest
Temperature 3°C
Humidity 81%
Pressure 1005 hPa
Visibility: 6000 m
rain showers, snow

METAR: ENOV 241250Z 25012G29KT 220V300 6000 SHRASN VV015 03/00 Q1005 RMK WIND 2175FT 25022G40KT

Time: 14:21 (13:21 UTC)


TAF: missing

Weather observations and forecasts of more than 4000 airports (METAR and TAF reports).

The available stations are represented by yellow and red dots on the map.

Hover mouse over dot to see the name of the station.

Then click to see weather observations and forecasts.

To change the map : click on the green buttons with a black cross to zoom in, on the green button with a dash to zoom out, or on the green arrows for adjacent maps.


METAR-TAF: